MST,Max TemperatureF,Mean TemperatureF,Min TemperatureF,Max Dew PointF,MeanDew PointF,Min DewpointF,Max Humidity, Mean Humidity, Min Humidity, Max Sea Level PressureIn, Mean Sea Level PressureIn, Min Sea Level PressureIn, Max VisibilityMiles, Mean VisibilityMiles, Min VisibilityMiles, Max Wind SpeedMPH, Mean Wind SpeedMPH, Max Gust SpeedMPH,PrecipitationIn, CloudCover, Events, WindDirDegrees
2013-2-1,61,40,19,17,10,4,54,32,15,30.26,30.19,30.11,10,10,10,9,3,,0.00,0,,35
2013-2-2,63,43,23,17,8,3,45,27,11,30.32,30.26,30.19,10,10,10,8,3,,0.00,0,,21
2013-2-3,59,44,29,32,14,1,52,30,17,30.22,30.06,29.89,10,10,10,9,2,,0.00,1,,99
2013-2-4,62,49,36,30,23,12,60,38,21,29.98,29.92,29.87,10,10,10,16,6,20,0.00,0,,12
2013-2-5,65,44,24,21,12,5,51,29,11,30.03,29.94,29.86,10,10,10,12,4,16,0.00,0,,355
2013-2-6,66,47,28,30,20,3,49,33,23,29.95,29.86,29.78,10,10,10,15,4,18,0.00,0,,208
2013-2-7,61,47,33,26,21,12,59,38,19,30.05,29.99,29.88,10,10,10,10,5,,0.00,0,,360
2013-2-8,63,45,27,28,23,14,58,36,26,30.06,29.92,29.70,10,10,10,29,13,37,0.00,0,,159
2013-2-9,60,48,36,26,16,9,39,28,14,29.88,29.72,29.61,10,8,2,34,18,44,0.00,1,,221
2013-2-10,50,36,22,14,9,-1,55,32,17,29.99,29.91,29.85,10,10,10,14,7,,0.00,0,,130
2013-2-11,58,38,18,26,8,-5,55,28,17,30.01,29.91,29.81,10,10,9,20,6,28,0.00,0,,245
2013-2-12,48,35,22,32,23,4,100,67,20,30.16,30.02,29.87,10,10,6,21,9,24,0.00,2,Rain-Snow,341
2013-2-13,51,36,20,12,7,3,55,35,16,30.17,30.10,30.04,10,10,10,12,7,,0.00,0,,346
2013-2-14,59,39,19,18,11,4,55,32,16,30.12,30.04,29.96,10,10,10,14,9,20,0.00,0,,350
2013-2-15,54,38,23,23,14,4,58,37,23,30.34,30.23,30.10,10,10,10,14,7,18,0.00,0,,219
2013-2-16,60,38,17,10,2,-4,45,24,9,30.42,30.27,30.10,10,10,10,7,4,,0.00,0,,183
2013-2-17,66,43,20,9,2,-7,32,17,7,30.09,29.89,29.73,10,10,5,18,6,23,0.00,0,,186
2013-2-18,62,46,31,7,3,0,28,16,8,29.98,29.89,29.75,10,9,3,12,6,20,0.00,0,,327
2013-2-19,62,44,27,41,14,-5,75,32,13,29.99,29.90,29.70,10,10,10,26,9,33,0.00,0,,155
2013-2-20,61,50,37,38,26,13,86,50,15,29.80,29.60,29.46,10,10,6,36,17,44,0.00,0,,210
2013-2-21,52,40,28,20,17,14,63,42,22,29.88,29.79,29.61,10,10,9,23,13,29,0.00,0,,197
2013-2-22,54,38,23,21,16,12,64,40,21,29.99,29.92,29.86,10,10,10,18,8,18,0.00,0,,194
2013-2-23,56,40,24,17,10,4,51,28,13,30.04,29.88,29.68,10,10,10,21,9,28,0.00,0,,127
2013-2-24,57,42,26,24,18,10,64,35,21,29.89,29.65,29.51,10,7,1,34,18,41,0.00,2,,248
2013-2-25,50,38,26,27,16,3,93,48,19,30.07,29.97,29.87,10,9,4,18,11,26,0.00,1,Snow,340
2013-2-26,65,42,18,10,2,-5,44,23,6,30.01,29.86,29.66,10,10,7,26,7,37,0.00,0,,34
2013-2-27,51,36,22,6,-1,-11,36,20,9,30.22,30.15,30.03,10,10,10,17,11,20,0.00,0,,339
2013-2-28,53,34,16,10,-1,-8,35,23,11,30.34,30.26,30.20,10,10,10,10,4,,0.00,0,,347